sensor_id;sensor_type;location;lat;lon;timestamp;temperature;humidity
72865;DHT22;61000;48.120;11.548;2022-12-08T00:01:32;2.60;99.90
72865;DHT22;61000;48.120;11.548;2022-12-08T00:04:00;2.60;99.90
72865;DHT22;61000;48.120;11.548;2022-12-08T00:06:29;2.60;99.90
72865;DHT22;61000;48.120;11.548;2022-12-08T00:09:18;2.60;99.90
72865;DHT22;61000;48.120;11.548;2022-12-08T00:12:04;2.70;99.90
72865;DHT22;61000;48.120;11.548;2022-12-08T00:14:33;2.70;99.90
72865;DHT22;61000;48.120;11.548;2022-12-08T00:17:00;2.70;99.90
72865;DHT22;61000;48.120;11.548;2022-12-08T00:19:29;2.70;99.90
72865;DHT22;61000;48.120;11.548;2022-12-08T00:21:56;2.60;99.90
72865;DHT22;61000;48.120;11.548;2022-12-08T00:24:30;2.60;99.90
72865;DHT22;61000;48.120;11.548;2022-12-08T00:26:56;2.60;99.90
72865;DHT22;61000;48.120;11.548;2022-12-08T00:29:24;2.60;99.90
72865;DHT22;61000;48.120;11.548;2022-12-08T00:31:51;2.60;99.90
72865;DHT22;61000;48.120;11.548;2022-12-08T00:34:18;2.60;99.90
72865;DHT22;61000;48.120;11.548;2022-12-08T00:36:45;2.60;99.90
72865;DHT22;61000;48.120;11.548;2022-12-08T00:39:14;2.60;99.90
72865;DHT22;61000;48.120;11.548;2022-12-08T00:41:42;2.60;99.90
72865;DHT22;61000;48.120;11.548;2022-12-08T00:44:26;2.60;99.90
72865;DHT22;61000;48.120;11.548;2022-12-08T00:46:53;2.50;99.90
72865;DHT22;61000;48.120;11.548;2022-12-08T00:49:20;2.50;99.90
72865;DHT22;61000;48.120;11.548;2022-12-08T00:51:48;2.50;99.90
72865;DHT22;61000;48.120;11.548;2022-12-08T00:54:14;2.50;99.90
72865;DHT22;61000;48.120;11.548;2022-12-08T00:56:43;2.40;99.90
72865;DHT22;61000;48.120;11.548;2022-12-08T00:59:09;2.40;99.90
72865;DHT22;61000;48.120;11.548;2022-12-08T01:01:36;2.40;99.90
72865;DHT22;61000;48.120;11.548;2022-12-08T01:04:04;2.40;99.90
72865;DHT22;61000;48.120;11.548;2022-12-08T01:06:31;2.30;99.90
72865;DHT22;61000;48.120;11.548;2022-12-08T01:09:00;2.40;99.90
72865;DHT22;61000;48.120;11.548;2022-12-08T01:11:27;2.40;99.90
72865;DHT22;61000;48.120;11.548;2022-12-08T01:13:55;2.40;99.90
72865;DHT22;61000;48.120;11.548;2022-12-08T01:16:25;2.40;99.90
72865;DHT22;61000;48.120;11.548;2022-12-08T01:18:53;2.40;99.90
72865;DHT22;61000;48.120;11.548;2022-12-08T01:21:20;2.40;99.90
72865;DHT22;61000;48.120;11.548;2022-12-08T01:23:47;2.50;99.90
72865;DHT22;61000;48.120;11.548;2022-12-08T01:26:15;2.40;99.90
72865;DHT22;61000;48.120;11.548;2022-12-08T01:28:43;2.40;99.90
72865;DHT22;61000;48.120;11.548;2022-12-08T01:31:13;2.40;99.90
72865;DHT22;61000;48.120;11.548;2022-12-08T01:33:40;2.40;99.90
72865;DHT22;61000;48.120;11.548;2022-12-08T01:36:08;2.40;99.90
72865;DHT22;61000;48.120;11.548;2022-12-08T01:38:36;2.30;99.90
72865;DHT22;61000;48.120;11.548;2022-12-08T01:41:02;2.40;99.90
72865;DHT22;61000;48.120;11.548;2022-12-08T01:43:57;2.40;99.90
72865;DHT22;61000;48.120;11.548;2022-12-08T01:46:27;2.40;99.90
72865;DHT22;61000;48.120;11.548;2022-12-08T01:48:57;2.40;99.90
72865;DHT22;61000;48.120;11.548;2022-12-08T01:51:26;2.40;99.90
72865;DHT22;61000;48.120;11.548;2022-12-08T01:53:53;2.40;99.90
72865;DHT22;61000;48.120;11.548;2022-12-08T01:56:26;2.30;99.90
72865;DHT22;61000;48.120;11.548;2022-12-08T01:58:55;2.40;99.90
72865;DHT22;61000;48.120;11.548;2022-12-08T02:01:22;2.30;99.90
72865;DHT22;61000;48.120;11.548;2022-12-08T02:03:54;2.30;99.90
72865;DHT22;61000;48.120;11.548;2022-12-08T02:06:22;2.30;99.90
72865;DHT22;61000;48.120;11.548;2022-12-08T02:08:49;2.30;99.90
72865;DHT22;61000;48.120;11.548;2022-12-08T02:11:20;2.30;99.90
72865;DHT22;61000;48.120;11.548;2022-12-08T02:13:48;2.30;99.90
72865;DHT22;61000;48.120;11.548;2022-12-08T02:16:24;2.30;99.90
72865;DHT22;61000;48.120;11.548;2022-12-08T02:19:01;2.30;99.90
72865;DHT22;61000;48.120;11.548;2022-12-08T02:21:35;2.30;99.90
72865;DHT22;61000;48.120;11.548;2022-12-08T02:24:10;2.30;99.90
72865;DHT22;61000;48.120;11.548;2022-12-08T02:30:17;2.20;99.90
72865;DHT22;61000;48.120;11.548;2022-12-08T02:33:42;2.20;99.90
72865;DHT22;61000;48.120;11.548;2022-12-08T02:36:15;2.20;99.90
72865;DHT22;61000;48.120;11.548;2022-12-08T02:38:52;2.20;99.90
72865;DHT22;61000;48.120;11.548;2022-12-08T02:41:29;2.10;99.90
72865;DHT22;61000;48.120;11.548;2022-12-08T02:44:05;2.20;99.90
72865;DHT22;61000;48.120;11.548;2022-12-08T02:46:38;2.10;99.90
72865;DHT22;61000;48.120;11.548;2022-12-08T02:49:08;2.10;99.90
72865;DHT22;61000;48.120;11.548;2022-12-08T02:51:35;2.10;99.90
72865;DHT22;61000;48.120;11.548;2022-12-08T02:54:02;2.10;99.90
72865;DHT22;61000;48.120;11.548;2022-12-08T02:56:40;2.10;99.90
72865;DHT22;61000;48.120;11.548;2022-12-08T02:59:21;2.10;99.90
72865;DHT22;61000;48.120;11.548;2022-12-08T03:02:03;2.10;99.90
72865;DHT22;61000;48.120;11.548;2022-12-08T03:04:39;2.10;99.90
72865;DHT22;61000;48.120;11.548;2022-12-08T03:07:13;2.10;99.90
72865;DHT22;61000;48.120;11.548;2022-12-08T03:09:45;2.10;99.90
72865;DHT22;61000;48.120;11.548;2022-12-08T03:12:18;2.10;99.90
72865;DHT22;61000;48.120;11.548;2022-12-08T03:14:49;2.10;99.90
72865;DHT22;61000;48.120;11.548;2022-12-08T03:17:19;2.10;99.90
72865;DHT22;61000;48.120;11.548;2022-12-08T03:19:49;2.10;99.90
72865;DHT22;61000;48.120;11.548;2022-12-08T03:22:18;2.10;99.90
72865;DHT22;61000;48.120;11.548;2022-12-08T03:24:47;2.20;99.90
72865;DHT22;61000;48.120;11.548;2022-12-08T03:27:17;2.10;99.90
72865;DHT22;61000;48.120;11.548;2022-12-08T03:29:45;2.10;99.90
72865;DHT22;61000;48.120;11.548;2022-12-08T03:32:18;2.10;99.90
72865;DHT22;61000;48.120;11.548;2022-12-08T03:34:50;2.10;99.90
72865;DHT22;61000;48.120;11.548;2022-12-08T03:37:17;2.10;99.90
72865;DHT22;61000;48.120;11.548;2022-12-08T03:39:44;2.10;99.90
72865;DHT22;61000;48.120;11.548;2022-12-08T03:42:11;2.10;99.90
72865;DHT22;61000;48.120;11.548;2022-12-08T03:44:38;2.10;99.90
72865;DHT22;61000;48.120;11.548;2022-12-08T03:47:04;2.10;99.90
72865;DHT22;61000;48.120;11.548;2022-12-08T03:49:31;2.10;99.90
72865;DHT22;61000;48.120;11.548;2022-12-08T03:51:59;2.10;99.90
72865;DHT22;61000;48.120;11.548;2022-12-08T03:54:26;2.10;99.90
72865;DHT22;61000;48.120;11.548;2022-12-08T03:56:53;2.10;99.90
72865;DHT22;61000;48.120;11.548;2022-12-08T03:59:20;2.10;99.90
72865;DHT22;61000;48.120;11.548;2022-12-08T04:01:47;2.10;99.90
72865;DHT22;61000;48.120;11.548;2022-12-08T04:04:14;2.00;99.90
72865;DHT22;61000;48.120;11.548;2022-12-08T04:06:40;2.00;99.90
72865;DHT22;61000;48.120;11.548;2022-12-08T04:09:09;2.00;99.90
72865;DHT22;61000;48.120;11.548;2022-12-08T04:11:35;2.00;99.90
72865;DHT22;61000;48.120;11.548;2022-12-08T04:14:02;2.00;99.90
72865;DHT22;61000;48.120;11.548;2022-12-08T04:16:29;2.00;99.90
72865;DHT22;61000;48.120;11.548;2022-12-08T04:18:56;2.00;99.90
72865;DHT22;61000;48.120;11.548;2022-12-08T04:21:23;2.00;99.90
72865;DHT22;61000;48.120;11.548;2022-12-08T04:23:50;2.00;99.90
72865;DHT22;61000;48.120;11.548;2022-12-08T04:26:18;2.00;99.90
72865;DHT22;61000;48.120;11.548;2022-12-08T04:28:45;2.00;99.90
72865;DHT22;61000;48.120;11.548;2022-12-08T04:31:12;2.00;99.90
72865;DHT22;61000;48.120;11.548;2022-12-08T04:33:39;2.00;99.90
72865;DHT22;61000;48.120;11.548;2022-12-08T04:36:07;2.00;99.90
72865;DHT22;61000;48.120;11.548;2022-12-08T04:38:34;2.10;99.90
72865;DHT22;61000;48.120;11.548;2022-12-08T04:41:01;2.00;99.90
72865;DHT22;61000;48.120;11.548;2022-12-08T04:43:29;2.00;99.90
72865;DHT22;61000;48.120;11.548;2022-12-08T04:45:56;2.00;99.90
72865;DHT22;61000;48.120;11.548;2022-12-08T04:48:24;2.00;99.90
72865;DHT22;61000;48.120;11.548;2022-12-08T04:50:50;2.10;99.90
72865;DHT22;61000;48.120;11.548;2022-12-08T04:53:17;2.10;99.90
72865;DHT22;61000;48.120;11.548;2022-12-08T04:55:45;2.00;99.90
72865;DHT22;61000;48.120;11.548;2022-12-08T04:58:16;2.10;99.90
72865;DHT22;61000;48.120;11.548;2022-12-08T05:00:45;2.10;99.90
72865;DHT22;61000;48.120;11.548;2022-12-08T05:03:13;2.10;99.90
72865;DHT22;61000;48.120;11.548;2022-12-08T05:05:41;2.10;99.90
72865;DHT22;61000;48.120;11.548;2022-12-08T05:08:08;2.10;99.90
72865;DHT22;61000;48.120;11.548;2022-12-08T05:10:36;2.10;99.90
72865;DHT22;61000;48.120;11.548;2022-12-08T05:13:03;2.10;99.90
72865;DHT22;61000;48.120;11.548;2022-12-08T05:15:30;2.10;99.90
72865;DHT22;61000;48.120;11.548;2022-12-08T05:17:58;2.10;99.90
72865;DHT22;61000;48.120;11.548;2022-12-08T05:20:25;2.10;99.90
72865;DHT22;61000;48.120;11.548;2022-12-08T05:22:52;2.10;99.90
72865;DHT22;61000;48.120;11.548;2022-12-08T05:25:18;2.10;99.90
72865;DHT22;61000;48.120;11.548;2022-12-08T05:27:45;2.10;99.90
72865;DHT22;61000;48.120;11.548;2022-12-08T05:30:12;2.10;99.90
72865;DHT22;61000;48.120;11.548;2022-12-08T05:32:39;2.10;99.90
72865;DHT22;61000;48.120;11.548;2022-12-08T05:35:08;2.00;99.90
72865;DHT22;61000;48.120;11.548;2022-12-08T05:37:35;2.00;99.90
72865;DHT22;61000;48.120;11.548;2022-12-08T05:40:02;2.10;99.90
72865;DHT22;61000;48.120;11.548;2022-12-08T05:42:29;2.00;99.90
72865;DHT22;61000;48.120;11.548;2022-12-08T05:44:56;2.00;99.90
72865;DHT22;61000;48.120;11.548;2022-12-08T05:47:23;2.00;99.90
72865;DHT22;61000;48.120;11.548;2022-12-08T05:49:50;2.10;99.90
72865;DHT22;61000;48.120;11.548;2022-12-08T05:52:20;2.00;99.90
72865;DHT22;61000;48.120;11.548;2022-12-08T05:54:47;2.00;99.90
72865;DHT22;61000;48.120;11.548;2022-12-08T05:57:13;2.00;99.90
72865;DHT22;61000;48.120;11.548;2022-12-08T05:59:40;2.00;99.90
72865;DHT22;61000;48.120;11.548;2022-12-08T06:02:07;2.00;99.90
72865;DHT22;61000;48.120;11.548;2022-12-08T06:04:35;2.00;99.90
72865;DHT22;61000;48.120;11.548;2022-12-08T06:07:02;2.00;99.90
72865;DHT22;61000;48.120;11.548;2022-12-08T06:09:30;2.00;99.90
72865;DHT22;61000;48.120;11.548;2022-12-08T06:11:57;1.90;99.90
72865;DHT22;61000;48.120;11.548;2022-12-08T06:14:24;1.90;99.90
72865;DHT22;61000;48.120;11.548;2022-12-08T06:16:51;1.90;99.90
72865;DHT22;61000;48.120;11.548;2022-12-08T06:19:18;1.90;99.90
72865;DHT22;61000;48.120;11.548;2022-12-08T06:21:45;1.90;99.90
72865;DHT22;61000;48.120;11.548;2022-12-08T06:24:12;1.90;99.90
72865;DHT22;61000;48.120;11.548;2022-12-08T06:26:40;1.90;99.90
72865;DHT22;61000;48.120;11.548;2022-12-08T06:29:08;1.80;99.90
72865;DHT22;61000;48.120;11.548;2022-12-08T06:31:34;1.90;99.90
72865;DHT22;61000;48.120;11.548;2022-12-08T06:34:01;1.90;99.90
72865;DHT22;61000;48.120;11.548;2022-12-08T06:36:29;1.90;99.90
72865;DHT22;61000;48.120;11.548;2022-12-08T06:38:56;1.80;99.90
72865;DHT22;61000;48.120;11.548;2022-12-08T06:41:23;1.80;99.90
72865;DHT22;61000;48.120;11.548;2022-12-08T06:43:54;1.80;99.90
72865;DHT22;61000;48.120;11.548;2022-12-08T06:46:21;1.90;99.90
72865;DHT22;61000;48.120;11.548;2022-12-08T06:48:48;1.90;99.90
72865;DHT22;61000;48.120;11.548;2022-12-08T06:51:17;1.90;99.90
72865;DHT22;61000;48.120;11.548;2022-12-08T06:53:45;1.90;99.90
72865;DHT22;61000;48.120;11.548;2022-12-08T06:56:14;1.90;99.90
72865;DHT22;61000;48.120;11.548;2022-12-08T06:58:43;1.90;99.90
72865;DHT22;61000;48.120;11.548;2022-12-08T07:01:12;1.90;99.90
72865;DHT22;61000;48.120;11.548;2022-12-08T07:03:39;1.80;99.90
72865;DHT22;61000;48.120;11.548;2022-12-08T07:06:13;1.90;99.90
72865;DHT22;61000;48.120;11.548;2022-12-08T07:08:40;1.90;99.90
72865;DHT22;61000;48.120;11.548;2022-12-08T07:11:08;1.90;99.90
72865;DHT22;61000;48.120;11.548;2022-12-08T07:13:35;1.90;99.90
72865;DHT22;61000;48.120;11.548;2022-12-08T07:16:04;2.00;99.90
72865;DHT22;61000;48.120;11.548;2022-12-08T07:18:33;2.00;99.90
72865;DHT22;61000;48.120;11.548;2022-12-08T07:21:02;2.00;99.90
72865;DHT22;61000;48.120;11.548;2022-12-08T07:23:29;2.00;99.90
72865;DHT22;61000;48.120;11.548;2022-12-08T07:25:59;2.00;99.90
72865;DHT22;61000;48.120;11.548;2022-12-08T07:28:26;2.00;99.90
72865;DHT22;61000;48.120;11.548;2022-12-08T07:30:53;2.10;99.90
72865;DHT22;61000;48.120;11.548;2022-12-08T07:33:20;2.10;99.90
72865;DHT22;61000;48.120;11.548;2022-12-08T07:35:54;2.10;99.90
72865;DHT22;61000;48.120;11.548;2022-12-08T07:38:21;2.20;99.90
72865;DHT22;61000;48.120;11.548;2022-12-08T07:40:48;2.20;99.90
72865;DHT22;61000;48.120;11.548;2022-12-08T07:43:15;2.20;99.90
72865;DHT22;61000;48.120;11.548;2022-12-08T07:45:41;2.30;99.90
72865;DHT22;61000;48.120;11.548;2022-12-08T07:48:09;2.30;99.90
72865;DHT22;61000;48.120;11.548;2022-12-08T07:50:35;2.40;99.90
72865;DHT22;61000;48.120;11.548;2022-12-08T07:53:05;2.30;99.90
72865;DHT22;61000;48.120;11.548;2022-12-08T07:55:32;2.40;99.90
72865;DHT22;61000;48.120;11.548;2022-12-08T07:57:58;2.40;99.90
72865;DHT22;61000;48.120;11.548;2022-12-08T08:00:25;2.40;99.90
72865;DHT22;61000;48.120;11.548;2022-12-08T08:02:52;2.40;99.90
72865;DHT22;61000;48.120;11.548;2022-12-08T08:05:19;2.50;99.90
72865;DHT22;61000;48.120;11.548;2022-12-08T08:07:46;2.50;99.90
72865;DHT22;61000;48.120;11.548;2022-12-08T08:10:14;2.60;99.90
72865;DHT22;61000;48.120;11.548;2022-12-08T08:12:41;2.60;99.90
72865;DHT22;61000;48.120;11.548;2022-12-08T08:15:08;2.60;99.90
72865;DHT22;61000;48.120;11.548;2022-12-08T08:17:36;2.60;99.90
72865;DHT22;61000;48.120;11.548;2022-12-08T08:20:06;2.70;99.90
72865;DHT22;61000;48.120;11.548;2022-12-08T08:22:33;2.80;99.90
72865;DHT22;61000;48.120;11.548;2022-12-08T08:25:00;2.80;99.90
72865;DHT22;61000;48.120;11.548;2022-12-08T08:27:29;2.90;99.90
72865;DHT22;61000;48.120;11.548;2022-12-08T08:29:55;3.00;99.90
72865;DHT22;61000;48.120;11.548;2022-12-08T08:32:23;3.00;99.90
72865;DHT22;61000;48.120;11.548;2022-12-08T08:34:50;3.10;99.90
72865;DHT22;61000;48.120;11.548;2022-12-08T08:37:16;3.10;99.90
72865;DHT22;61000;48.120;11.548;2022-12-08T08:39:43;3.20;99.90
72865;DHT22;61000;48.120;11.548;2022-12-08T08:42:10;3.20;99.90
72865;DHT22;61000;48.120;11.548;2022-12-08T08:44:38;3.30;99.90
72865;DHT22;61000;48.120;11.548;2022-12-08T08:47:05;3.40;99.90
72865;DHT22;61000;48.120;11.548;2022-12-08T08:49:32;3.50;99.90
72865;DHT22;61000;48.120;11.548;2022-12-08T08:51:59;3.50;99.90
72865;DHT22;61000;48.120;11.548;2022-12-08T08:54:27;3.50;99.90
72865;DHT22;61000;48.120;11.548;2022-12-08T08:56:55;3.60;99.90
72865;DHT22;61000;48.120;11.548;2022-12-08T08:59:22;3.60;99.90
72865;DHT22;61000;48.120;11.548;2022-12-08T09:01:50;3.60;99.90
72865;DHT22;61000;48.120;11.548;2022-12-08T09:04:17;3.70;99.90
72865;DHT22;61000;48.120;11.548;2022-12-08T09:06:44;3.70;99.90
72865;DHT22;61000;48.120;11.548;2022-12-08T09:09:11;3.80;99.90
72865;DHT22;61000;48.120;11.548;2022-12-08T09:11:37;3.90;99.90
72865;DHT22;61000;48.120;11.548;2022-12-08T09:14:05;4.00;99.90
72865;DHT22;61000;48.120;11.548;2022-12-08T09:16:32;4.00;99.90
72865;DHT22;61000;48.120;11.548;2022-12-08T09:19:00;4.10;99.90
72865;DHT22;61000;48.120;11.548;2022-12-08T09:21:27;4.00;99.90
72865;DHT22;61000;48.120;11.548;2022-12-08T09:23:55;4.10;99.90
72865;DHT22;61000;48.120;11.548;2022-12-08T09:26:23;4.00;99.90
72865;DHT22;61000;48.120;11.548;2022-12-08T09:28:50;4.00;99.90
72865;DHT22;61000;48.120;11.548;2022-12-08T09:31:19;4.10;99.90
72865;DHT22;61000;48.120;11.548;2022-12-08T09:33:47;4.10;99.90
72865;DHT22;61000;48.120;11.548;2022-12-08T09:36:17;4.10;99.90
72865;DHT22;61000;48.120;11.548;2022-12-08T09:38:44;4.10;99.90
72865;DHT22;61000;48.120;11.548;2022-12-08T09:41:15;4.10;99.90
72865;DHT22;61000;48.120;11.548;2022-12-08T09:43:53;4.10;99.90
72865;DHT22;61000;48.120;11.548;2022-12-08T09:46:22;4.10;99.90
72865;DHT22;61000;48.120;11.548;2022-12-08T09:48:53;4.10;99.90
72865;DHT22;61000;48.120;11.548;2022-12-08T09:51:23;4.20;99.90
72865;DHT22;61000;48.120;11.548;2022-12-08T09:53:55;4.20;99.90
72865;DHT22;61000;48.120;11.548;2022-12-08T09:56:25;4.10;99.90
72865;DHT22;61000;48.120;11.548;2022-12-08T09:58:56;4.10;99.90
72865;DHT22;61000;48.120;11.548;2022-12-08T10:01:27;4.20;99.90
72865;DHT22;61000;48.120;11.548;2022-12-08T10:03:55;4.30;99.90
72865;DHT22;61000;48.120;11.548;2022-12-08T10:06:29;4.30;99.90
72865;DHT22;61000;48.120;11.548;2022-12-08T10:09:03;4.50;99.90
72865;DHT22;61000;48.120;11.548;2022-12-08T10:11:39;4.60;99.90
72865;DHT22;61000;48.120;11.548;2022-12-08T10:14:15;4.70;99.90
72865;DHT22;61000;48.120;11.548;2022-12-08T10:16:48;4.80;99.90
72865;DHT22;61000;48.120;11.548;2022-12-08T10:19:19;4.90;99.90
72865;DHT22;61000;48.120;11.548;2022-12-08T10:21:48;4.90;99.90
72865;DHT22;61000;48.120;11.548;2022-12-08T10:24:21;4.80;99.90
72865;DHT22;61000;48.120;11.548;2022-12-08T10:26:49;4.80;99.90
72865;DHT22;61000;48.120;11.548;2022-12-08T10:29:16;4.90;99.90
72865;DHT22;61000;48.120;11.548;2022-12-08T10:31:43;4.90;99.90
72865;DHT22;61000;48.120;11.548;2022-12-08T10:34:15;4.80;99.90
72865;DHT22;61000;48.120;11.548;2022-12-08T10:36:48;4.80;99.90
72865;DHT22;61000;48.120;11.548;2022-12-08T10:39:36;4.60;99.90
72865;DHT22;61000;48.120;11.548;2022-12-08T10:42:15;4.40;99.90
72865;DHT22;61000;48.120;11.548;2022-12-08T10:44:53;4.40;99.90
72865;DHT22;61000;48.120;11.548;2022-12-08T10:47:22;4.40;99.90
72865;DHT22;61000;48.120;11.548;2022-12-08T10:50:07;4.40;99.90
72865;DHT22;61000;48.120;11.548;2022-12-08T10:52:38;4.50;99.90
72865;DHT22;61000;48.120;11.548;2022-12-08T10:55:13;4.50;99.90
72865;DHT22;61000;48.120;11.548;2022-12-08T10:57:41;4.30;99.90
72865;DHT22;61000;48.120;11.548;2022-12-08T11:00:12;4.20;99.90
72865;DHT22;61000;48.120;11.548;2022-12-08T11:02:50;4.10;99.90
72865;DHT22;61000;48.120;11.548;2022-12-08T11:05:22;4.20;99.90
72865;DHT22;61000;48.120;11.548;2022-12-08T11:07:53;4.30;99.90
72865;DHT22;61000;48.120;11.548;2022-12-08T11:10:28;4.10;99.90
72865;DHT22;61000;48.120;11.548;2022-12-08T11:12:59;4.10;99.90
72865;DHT22;61000;48.120;11.548;2022-12-08T11:15:32;4.00;99.90
72865;DHT22;61000;48.120;11.548;2022-12-08T11:18:07;4.00;99.90
72865;DHT22;61000;48.120;11.548;2022-12-08T11:20:38;4.00;99.90
72865;DHT22;61000;48.120;11.548;2022-12-08T11:23:19;4.00;99.90
72865;DHT22;61000;48.120;11.548;2022-12-08T11:25:48;4.10;99.90
72865;DHT22;61000;48.120;11.548;2022-12-08T11:28:20;4.00;99.90
72865;DHT22;61000;48.120;11.548;2022-12-08T11:30:52;3.90;99.90
72865;DHT22;61000;48.120;11.548;2022-12-08T11:33:24;3.90;99.90
72865;DHT22;61000;48.120;11.548;2022-12-08T11:35:55;4.00;99.90
72865;DHT22;61000;48.120;11.548;2022-12-08T11:38:24;4.00;99.90
72865;DHT22;61000;48.120;11.548;2022-12-08T11:40:53;4.10;99.90
72865;DHT22;61000;48.120;11.548;2022-12-08T11:43:25;4.10;99.90
72865;DHT22;61000;48.120;11.548;2022-12-08T11:45:58;4.20;99.90
72865;DHT22;61000;48.120;11.548;2022-12-08T11:48:31;4.20;99.90
72865;DHT22;61000;48.120;11.548;2022-12-08T11:51:02;4.20;99.90
72865;DHT22;61000;48.120;11.548;2022-12-08T11:53:38;4.20;99.90
72865;DHT22;61000;48.120;11.548;2022-12-08T11:56:14;4.20;99.90
72865;DHT22;61000;48.120;11.548;2022-12-08T11:58:44;4.10;99.90
72865;DHT22;61000;48.120;11.548;2022-12-08T12:01:17;4.20;99.90
72865;DHT22;61000;48.120;11.548;2022-12-08T12:03:51;4.20;99.90
72865;DHT22;61000;48.120;11.548;2022-12-08T12:06:34;4.30;99.90
72865;DHT22;61000;48.120;11.548;2022-12-08T12:09:14;4.30;99.90
72865;DHT22;61000;48.120;11.548;2022-12-08T12:11:51;4.20;99.90
72865;DHT22;61000;48.120;11.548;2022-12-08T12:15:13;4.20;99.90
72865;DHT22;61000;48.120;11.548;2022-12-08T12:17:45;4.30;99.90
72865;DHT22;61000;48.120;11.548;2022-12-08T12:20:17;4.30;99.90
72865;DHT22;61000;48.120;11.548;2022-12-08T12:22:48;4.30;99.90
72865;DHT22;61000;48.120;11.548;2022-12-08T12:25:20;4.30;99.90
72865;DHT22;61000;48.120;11.548;2022-12-08T12:27:49;4.30;99.90
72865;DHT22;61000;48.120;11.548;2022-12-08T12:30:20;4.30;99.90
72865;DHT22;61000;48.120;11.548;2022-12-08T12:32:51;4.30;99.90
72865;DHT22;61000;48.120;11.548;2022-12-08T12:35:25;4.30;99.90
72865;DHT22;61000;48.120;11.548;2022-12-08T12:37:56;4.30;99.90
72865;DHT22;61000;48.120;11.548;2022-12-08T12:40:27;4.20;99.90
72865;DHT22;61000;48.120;11.548;2022-12-08T12:43:19;4.40;99.90
72865;DHT22;61000;48.120;11.548;2022-12-08T12:45:49;4.20;99.90
72865;DHT22;61000;48.120;11.548;2022-12-08T12:48:36;4.10;99.90
72865;DHT22;61000;48.120;11.548;2022-12-08T12:51:41;4.30;99.90
72865;DHT22;61000;48.120;11.548;2022-12-08T12:54:20;4.30;99.90
72865;DHT22;61000;48.120;11.548;2022-12-08T12:56:51;4.20;99.90
72865;DHT22;61000;48.120;11.548;2022-12-08T12:59:40;4.30;99.90
72865;DHT22;61000;48.120;11.548;2022-12-08T13:02:20;4.40;99.90
72865;DHT22;61000;48.120;11.548;2022-12-08T13:04:56;4.30;99.90
72865;DHT22;61000;48.120;11.548;2022-12-08T13:07:25;4.40;99.90
72865;DHT22;61000;48.120;11.548;2022-12-08T13:09:59;4.40;99.90
72865;DHT22;61000;48.120;11.548;2022-12-08T13:12:27;4.50;99.90
72865;DHT22;61000;48.120;11.548;2022-12-08T13:15:01;4.50;99.90
72865;DHT22;61000;48.120;11.548;2022-12-08T13:17:30;4.60;99.90
72865;DHT22;61000;48.120;11.548;2022-12-08T13:20:00;4.70;99.90
72865;DHT22;61000;48.120;11.548;2022-12-08T13:22:48;4.70;99.90
72865;DHT22;61000;48.120;11.548;2022-12-08T13:25:43;4.70;99.90
72865;DHT22;61000;48.120;11.548;2022-12-08T13:28:18;4.70;99.90
72865;DHT22;61000;48.120;11.548;2022-12-08T13:30:46;4.70;99.90
72865;DHT22;61000;48.120;11.548;2022-12-08T13:33:21;4.70;99.90
72865;DHT22;61000;48.120;11.548;2022-12-08T13:36:10;4.80;99.90
72865;DHT22;61000;48.120;11.548;2022-12-08T13:38:41;4.70;99.90
72865;DHT22;61000;48.120;11.548;2022-12-08T13:41:15;4.70;99.90
72865;DHT22;61000;48.120;11.548;2022-12-08T13:43:47;4.70;99.90
72865;DHT22;61000;48.120;11.548;2022-12-08T13:46:16;4.70;99.90
72865;DHT22;61000;48.120;11.548;2022-12-08T13:48:49;4.60;99.90
72865;DHT22;61000;48.120;11.548;2022-12-08T13:51:19;4.70;99.90
72865;DHT22;61000;48.120;11.548;2022-12-08T13:53:57;4.70;99.90
72865;DHT22;61000;48.120;11.548;2022-12-08T13:56:27;4.70;99.90
72865;DHT22;61000;48.120;11.548;2022-12-08T13:59:08;4.60;99.90
72865;DHT22;61000;48.120;11.548;2022-12-08T14:01:42;4.50;99.90
72865;DHT22;61000;48.120;11.548;2022-12-08T14:04:14;4.40;99.90
72865;DHT22;61000;48.120;11.548;2022-12-08T14:06:43;4.50;99.90
72865;DHT22;61000;48.120;11.548;2022-12-08T14:09:13;4.50;99.90
72865;DHT22;61000;48.120;11.548;2022-12-08T14:11:43;4.50;99.90
72865;DHT22;61000;48.120;11.548;2022-12-08T14:14:16;4.40;99.90
72865;DHT22;61000;48.120;11.548;2022-12-08T14:16:49;4.30;99.90
72865;DHT22;61000;48.120;11.548;2022-12-08T14:19:19;4.30;99.90
72865;DHT22;61000;48.120;11.548;2022-12-08T14:21:51;4.30;99.90
72865;DHT22;61000;48.120;11.548;2022-12-08T14:24:21;4.30;99.90
72865;DHT22;61000;48.120;11.548;2022-12-08T14:26:50;4.40;99.90
72865;DHT22;61000;48.120;11.548;2022-12-08T14:29:41;4.40;99.90
72865;DHT22;61000;48.120;11.548;2022-12-08T14:32:24;4.40;99.90
72865;DHT22;61000;48.120;11.548;2022-12-08T14:34:57;4.50;99.90
72865;DHT22;61000;48.120;11.548;2022-12-08T14:37:26;4.50;99.90
72865;DHT22;61000;48.120;11.548;2022-12-08T14:39:57;4.30;99.90
72865;DHT22;61000;48.120;11.548;2022-12-08T14:42:27;4.20;99.90
72865;DHT22;61000;48.120;11.548;2022-12-08T14:44:58;4.30;99.90
72865;DHT22;61000;48.120;11.548;2022-12-08T14:47:29;4.20;99.90
72865;DHT22;61000;48.120;11.548;2022-12-08T14:49:56;4.20;99.90
72865;DHT22;61000;48.120;11.548;2022-12-08T14:52:24;4.20;99.90
72865;DHT22;61000;48.120;11.548;2022-12-08T14:54:51;4.20;99.90
72865;DHT22;61000;48.120;11.548;2022-12-08T14:57:19;4.10;99.90
72865;DHT22;61000;48.120;11.548;2022-12-08T14:59:46;4.20;99.90
72865;DHT22;61000;48.120;11.548;2022-12-08T15:02:26;4.10;99.90
72865;DHT22;61000;48.120;11.548;2022-12-08T15:05:00;4.00;99.90
72865;DHT22;61000;48.120;11.548;2022-12-08T15:07:29;4.00;99.90
72865;DHT22;61000;48.120;11.548;2022-12-08T15:10:17;3.90;99.90
72865;DHT22;61000;48.120;11.548;2022-12-08T15:12:57;3.90;99.90
72865;DHT22;61000;48.120;11.548;2022-12-08T15:15:24;3.80;99.90
72865;DHT22;61000;48.120;11.548;2022-12-08T15:18:01;3.80;99.90
72865;DHT22;61000;48.120;11.548;2022-12-08T15:20:37;3.80;99.90
72865;DHT22;61000;48.120;11.548;2022-12-08T15:23:05;3.90;99.90
72865;DHT22;61000;48.120;11.548;2022-12-08T15:25:32;3.70;99.90
72865;DHT22;61000;48.120;11.548;2022-12-08T15:28:01;3.60;99.90
72865;DHT22;61000;48.120;11.548;2022-12-08T15:30:28;3.60;99.90
72865;DHT22;61000;48.120;11.548;2022-12-08T15:32:57;3.60;99.90
72865;DHT22;61000;48.120;11.548;2022-12-08T15:35:24;3.40;99.90
72865;DHT22;61000;48.120;11.548;2022-12-08T15:37:51;3.40;99.90
72865;DHT22;61000;48.120;11.548;2022-12-08T15:40:20;3.30;99.90
72865;DHT22;61000;48.120;11.548;2022-12-08T15:42:47;3.30;99.90
72865;DHT22;61000;48.120;11.548;2022-12-08T15:45:15;3.30;99.90
72865;DHT22;61000;48.120;11.548;2022-12-08T15:47:43;3.30;99.90
72865;DHT22;61000;48.120;11.548;2022-12-08T15:50:17;3.30;99.90
72865;DHT22;61000;48.120;11.548;2022-12-08T15:52:44;3.30;99.90
72865;DHT22;61000;48.120;11.548;2022-12-08T15:55:11;3.30;99.90